Arjeplog, Sweden

1:46 PM CEST on July 25, 2016 (GMT +0200)
Arvidsjaur | | Change Station

Elev 1243 ft 65.59 °N, 19.28 °E | Updated 26 minutes ago

Clear
Clear
75 °F
Feels Like 75 °F
N
6
Wind Variable Wind from WSW

Today
High -- | Low -- °F
--% Chance of Precip.
Yesterday
High -- | Low -- °F
Precip. -- in
Pressure 30.01 in
Visibility 6.2 miles
Clouds
Dew Point 54 °F
Humidity 47%
Rainfall 0.00 in
Snow Depth Not available.
3:06 AM 10:39 PM
Waning Gibbous, 66% visible
METAR ESNX 251120Z AUTO 24005KT 190V270 9999NDV NCD 24/12 Q1016
Pressure 30.01 in
Visibility 6.2 miles
Clouds
Dew Point 54 °F
Humidity 47%
Rainfall 0.00 in
Snow Depth Not available.
3:06 AM 10:39 PM
Waning Gibbous, 66% visible
METAR ESNX 251120Z AUTO 24005KT 190V270 9999NDV NCD 24/12 Q1016

10-Day Weather Forecast

×

Almanac

Astronomy

Jul. 25, 2016 Rise Set
Actual Time
Civil Twilight
Nautical Twilight
Astronomical Twilight
Moon
Length of Visible Light
Length of Day
Tomorrow will be .
, % of the Moon is Illuminated

Today's Extremes

Country Highs Country Lows

Community

WunderPhotos

Upload Photos

1,927,293 photos uploaded!

WunderBlog® & News

Nearby

Air Quality

  Air Quality AQ Index Pollutant
Not available.

Snow Depth

Station Depth Elevation

Earthquake Activity

City Distance Mag. Time & Date
Minimum magnitude displayed is 2.5.

Coastal Water Temperatures

Place Temperature

Stations

Nearby Weather Stations

Station Location Temp. Windchill Dew Point Humidity Wind Precip. Elev Updated Type